Roxbury, Pennsylvania
Current Conditions -  °F | °C
As of 11:53 PM on Saturday 25 Oct 2014 (Local Time) from KHGR Reporting Station
Clear Clear  
Wind Chill: 63°   Ceiling: Unl
Heat Index: 63°   Visibility: 10mi
Dew Point: 49°   Wind: 7mph
Humidity: 60%   Direction: 240°WSW
Pressure: 29.68"   Gusts: NA
Location:  40.11°N, 77.66°W
Report Text: KHGR 260353Z AUTO 24006KT 10SM CLR 17/09 A2968 RMK AO2 SLP058 T01720094
Loading
Personal Weather Stations






























Interactive Weather Map
Tropical Storm Tracking
New forecast layout! Learn more

10-Day Weather Forecast

Advertisements
Track Severe Weather on mobile